createdAt,value
2022-07-31T00:00:33.617Z,21.90
2022-07-31T00:05:38.744Z,21.92
2022-07-31T00:10:35.723Z,21.93
2022-07-31T00:15:35.710Z,21.90
2022-07-31T00:20:35.694Z,21.85
2022-07-31T00:25:35.682Z,21.81
2022-07-31T00:30:35.710Z,21.78
2022-07-31T00:35:35.651Z,21.75
2022-07-31T00:40:35.683Z,21.72
2022-07-31T00:45:35.727Z,21.69
2022-07-31T00:50:37.707Z,21.63
2022-07-31T00:55:51.096Z,21.54
2022-07-31T01:00:40.996Z,21.38
2022-07-31T01:05:41.259Z,21.18
2022-07-31T01:10:42.188Z,20.96
2022-07-31T01:15:41.704Z,20.75
2022-07-31T01:20:42.504Z,20.57
2022-07-31T01:25:56.840Z,20.41
2022-07-31T01:31:17.110Z,20.29
2022-07-31T01:35:58.711Z,20.21
2022-07-31T01:40:58.796Z,20.16
2022-07-31T01:45:59.960Z,20.15
2022-07-31T01:50:59.932Z,20.15
2022-07-31T01:56:03.859Z,20.18
2022-07-31T02:01:02.055Z,20.22
2022-07-31T02:06:03.788Z,20.28
2022-07-31T02:11:05.157Z,20.34
2022-07-31T02:16:06.216Z,20.38
2022-07-31T02:21:05.843Z,20.36
2022-07-31T02:26:07.512Z,20.31
2022-07-31T02:31:08.007Z,20.28
2022-07-31T02:36:07.742Z,20.28
2022-07-31T02:41:08.269Z,20.29
2022-07-31T02:46:07.890Z,20.32
2022-07-31T02:51:08.255Z,20.36
2022-07-31T02:56:10.338Z,20.38
2022-07-31T03:01:10.985Z,20.43
2022-07-31T03:06:11.718Z,20.48
2022-07-31T03:11:11.776Z,20.52
2022-07-31T03:16:11.743Z,20.53
2022-07-31T03:21:11.839Z,20.55
2022-07-31T03:26:12.255Z,20.54
2022-07-31T03:31:11.759Z,20.53
2022-07-31T03:36:12.365Z,20.53
2022-07-31T03:41:12.822Z,20.54
2022-07-31T03:46:12.978Z,20.55
2022-07-31T03:51:13.080Z,20.57
2022-07-31T03:56:12.972Z,20.61
2022-07-31T04:01:12.964Z,20.66
2022-07-31T04:06:12.785Z,20.71
2022-07-31T04:11:12.967Z,20.76
2022-07-31T04:16:12.810Z,20.81
2022-07-31T04:21:12.783Z,20.87
2022-07-31T04:26:19.917Z,20.96
2022-07-31T04:31:18.719Z,21.06
2022-07-31T04:36:29.538Z,21.16
2022-07-31T04:41:21.014Z,21.23
2022-07-31T04:46:20.841Z,21.30
2022-07-31T04:51:21.006Z,21.37
2022-07-31T04:56:37.301Z,21.42
2022-07-31T05:01:37.008Z,21.53
2022-07-31T05:06:37.884Z,21.73
2022-07-31T05:11:38.209Z,21.94
2022-07-31T05:16:38.150Z,22.06
2022-07-31T05:21:52.840Z,22.13
2022-07-31T05:26:41.868Z,22.31
2022-07-31T05:32:00.549Z,22.52
2022-07-31T05:36:44.939Z,22.59
2022-07-31T05:41:52.804Z,22.60
2022-07-31T05:51:54.631Z,22.78
2022-07-31T05:56:56.828Z,23.14
2022-07-31T06:01:57.489Z,23.72
2022-07-31T06:06:59.782Z,24.24
2022-07-31T06:12:00.643Z,24.67
2022-07-31T06:17:00.896Z,25.17
2022-07-31T06:22:02.725Z,25.78
2022-07-31T06:27:04.538Z,26.47
2022-07-31T06:32:05.951Z,27.08
2022-07-31T06:37:06.072Z,27.45
2022-07-31T06:42:07.902Z,27.72
2022-07-31T06:47:26.640Z,28.31
2022-07-31T06:52:27.360Z,29.42
2022-07-31T06:57:26.915Z,30.38
2022-07-31T07:02:27.939Z,30.19
2022-07-31T07:07:31.948Z,29.35
2022-07-31T07:12:31.632Z,28.52
2022-07-31T07:17:32.885Z,27.81
2022-07-31T07:22:34.618Z,27.35
2022-07-31T07:27:36.317Z,27.15
2022-07-31T07:32:35.963Z,26.97
2022-07-31T07:37:38.948Z,26.70
2022-07-31T07:42:38.483Z,26.52
2022-07-31T07:48:05.314Z,26.45
2022-07-31T07:52:51.110Z,26.37
2022-07-31T07:57:58.531Z,26.53
2022-07-31T08:03:46.823Z,28.02
2022-07-31T08:08:17.143Z,30.36
2022-07-31T08:13:35.815Z,31.56
2022-07-31T08:18:38.039Z,32.03
2022-07-31T08:23:38.959Z,33.01
2022-07-31T08:28:39.314Z,34.70
2022-07-31T08:33:39.623Z,35.53
2022-07-31T08:38:59.037Z,35.56
2022-07-31T08:44:00.237Z,35.38
2022-07-31T08:49:01.178Z,35.06
2022-07-31T08:54:01.116Z,34.65
2022-07-31T08:59:01.456Z,34.09
2022-07-31T09:04:01.288Z,33.64
2022-07-31T09:09:01.111Z,34.11
2022-07-31T09:14:03.485Z,35.26
2022-07-31T09:19:03.448Z,36.24
2022-07-31T09:24:05.122Z,37.14
2022-07-31T09:29:07.489Z,38.37
2022-07-31T09:34:14.899Z,40.82
2022-07-31T09:39:35.937Z,43.34
2022-07-31T09:44:36.192Z,43.61
2022-07-31T09:49:36.846Z,42.06
2022-07-31T09:54:39.002Z,40.42
2022-07-31T09:59:39.295Z,39.21
2022-07-31T10:04:41.103Z,38.27
2022-07-31T10:09:43.074Z,37.36
2022-07-31T10:14:44.055Z,36.60
2022-07-31T10:19:58.042Z,36.02
2022-07-31T10:25:00.253Z,35.44
2022-07-31T10:30:00.174Z,34.81
2022-07-31T10:35:01.983Z,34.47
2022-07-31T10:40:04.100Z,34.77
2022-07-31T10:45:06.022Z,35.44
2022-07-31T10:50:20.184Z,36.27
2022-07-31T10:55:40.434Z,37.12
2022-07-31T11:00:51.149Z,37.68
2022-07-31T11:06:01.453Z,37.99
2022-07-31T11:10:57.107Z,37.99
2022-07-31T11:16:16.888Z,37.92
2022-07-31T11:21:37.611Z,37.71
2022-07-31T11:26:19.190Z,37.28
2022-07-31T11:31:21.692Z,36.56
2022-07-31T11:36:21.176Z,35.70
2022-07-31T11:41:22.274Z,35.11
2022-07-31T11:46:23.236Z,34.81
2022-07-31T11:51:23.268Z,34.51
2022-07-31T11:56:23.789Z,34.08
2022-07-31T12:01:23.280Z,33.49
2022-07-31T12:06:23.295Z,32.85
2022-07-31T12:11:25.302Z,32.69
2022-07-31T12:16:28.368Z,33.23
2022-07-31T12:21:28.394Z,33.93
2022-07-31T12:26:28.320Z,34.36
2022-07-31T12:31:28.285Z,34.45
2022-07-31T12:36:28.299Z,34.46
2022-07-31T12:41:28.223Z,34.53
2022-07-31T12:46:28.273Z,34.58
2022-07-31T12:51:45.669Z,34.37
2022-07-31T12:56:32.328Z,34.06
2022-07-31T13:01:32.356Z,33.82
2022-07-31T13:06:32.338Z,33.55
2022-07-31T13:11:46.278Z,33.37
2022-07-31T13:16:34.270Z,33.19
2022-07-31T13:21:48.419Z,33.17
2022-07-31T13:26:37.708Z,33.27
2022-07-31T13:31:37.346Z,33.13
2022-07-31T13:36:39.509Z,32.70
2022-07-31T13:41:39.789Z,32.14
2022-07-31T13:46:40.320Z,31.71
2022-07-31T13:51:40.314Z,31.55
2022-07-31T13:56:43.335Z,31.53
2022-07-31T14:02:03.580Z,31.26
2022-07-31T14:06:45.746Z,30.89
2022-07-31T14:11:46.357Z,30.67
2022-07-31T14:16:48.376Z,30.75
2022-07-31T14:21:56.546Z,31.22
2022-07-31T14:26:50.372Z,31.65
2022-07-31T14:31:50.475Z,31.83
2022-07-31T14:36:50.354Z,31.84
2022-07-31T14:41:50.569Z,31.72
2022-07-31T14:46:50.705Z,31.55
2022-07-31T14:51:50.456Z,31.34
2022-07-31T14:57:01.150Z,30.97
2022-07-31T15:01:52.569Z,30.78
2022-07-31T15:07:03.104Z,30.82
2022-07-31T15:11:59.935Z,30.71
2022-07-31T15:16:56.470Z,30.54
2022-07-31T15:22:10.407Z,30.48
2022-07-31T15:26:58.483Z,30.51
2022-07-31T15:31:58.473Z,30.47
2022-07-31T15:36:58.408Z,30.44
2022-07-31T15:41:58.400Z,30.38
2022-07-31T15:46:58.423Z,30.27
2022-07-31T15:51:58.472Z,30.26
2022-07-31T15:56:58.490Z,30.29
2022-07-31T16:01:58.468Z,30.23
2022-07-31T16:06:59.047Z,30.14
2022-07-31T16:12:03.892Z,30.12
2022-07-31T16:17:01.534Z,30.17
2022-07-31T16:22:01.417Z,30.16
2022-07-31T16:27:01.467Z,29.99
2022-07-31T16:32:01.548Z,29.80
2022-07-31T16:37:01.861Z,29.65
2022-07-31T16:42:02.492Z,29.53
2022-07-31T16:47:02.561Z,29.40
2022-07-31T16:52:02.474Z,29.19
2022-07-31T16:57:02.816Z,28.93
2022-07-31T17:02:02.709Z,28.75
2022-07-31T17:07:03.041Z,28.63
2022-07-31T17:12:04.259Z,28.48
2022-07-31T17:17:04.760Z,28.30
2022-07-31T17:22:04.550Z,28.11
2022-07-31T17:27:05.009Z,27.97
2022-07-31T17:32:05.609Z,27.90
2022-07-31T17:37:06.667Z,27.90
2022-07-31T17:42:09.702Z,27.94
2022-07-31T17:47:10.886Z,27.99
2022-07-31T17:52:11.837Z,27.92
2022-07-31T17:57:11.647Z,27.64
2022-07-31T18:02:12.714Z,27.28
2022-07-31T18:07:17.378Z,26.85
2022-07-31T18:12:17.737Z,26.07
2022-07-31T18:17:18.903Z,25.06
2022-07-31T18:22:18.527Z,24.38
2022-07-31T18:27:18.609Z,23.99
2022-07-31T18:32:44.034Z,23.68
2022-07-31T18:37:43.567Z,23.39
2022-07-31T18:42:43.654Z,23.14
2022-07-31T18:47:43.576Z,22.95
2022-07-31T18:52:43.879Z,22.82
2022-07-31T18:57:43.964Z,22.73
2022-07-31T19:02:43.722Z,22.66
2022-07-31T19:07:43.572Z,22.62
2022-07-31T19:12:45.847Z,22.56
2022-07-31T19:17:45.705Z,22.49
2022-07-31T19:22:45.603Z,22.38
2022-07-31T19:27:50.485Z,22.22
2022-07-31T19:32:47.664Z,22.05
2022-07-31T19:37:47.779Z,21.90
2022-07-31T19:42:51.713Z,21.77
2022-07-31T19:47:51.782Z,21.68
2022-07-31T19:52:51.689Z,21.64
2022-07-31T19:57:51.649Z,21.62
2022-07-31T20:02:52.202Z,21.61
2022-07-31T20:07:51.698Z,21.59
2022-07-31T20:12:51.706Z,21.58
2022-07-31T20:17:52.608Z,21.57
2022-07-31T20:22:52.721Z,21.55
2022-07-31T20:27:52.797Z,21.55
2022-07-31T20:32:52.841Z,21.56
2022-07-31T20:37:55.283Z,21.56
2022-07-31T20:42:58.711Z,21.57
2022-07-31T20:47:58.794Z,21.58
2022-07-31T20:52:58.771Z,21.58
2022-07-31T20:57:58.675Z,21.58
2022-07-31T21:02:59.925Z,21.58
2022-07-31T21:07:59.691Z,21.60
2022-07-31T21:12:59.832Z,21.63
2022-07-31T21:17:59.656Z,21.63
2022-07-31T21:23:01.429Z,21.61
2022-07-31T21:28:01.771Z,21.58
2022-07-31T21:33:01.699Z,21.56
2022-07-31T21:38:01.742Z,21.53
2022-07-31T21:43:02.861Z,21.51
2022-07-31T21:48:03.446Z,21.50
2022-07-31T21:53:03.887Z,21.48
2022-07-31T21:58:03.766Z,21.47
2022-07-31T22:03:03.796Z,21.46
2022-07-31T22:08:03.813Z,21.45
2022-07-31T22:13:04.831Z,21.44
2022-07-31T22:18:04.743Z,21.44
2022-07-31T22:23:04.724Z,21.44
2022-07-31T22:28:04.768Z,21.44
2022-07-31T22:33:05.080Z,21.44
2022-07-31T22:38:05.758Z,21.44
2022-07-31T22:44:09.898Z,21.43
2022-07-31T22:48:07.786Z,21.42
2022-07-31T22:53:07.823Z,21.40
2022-07-31T22:58:10.308Z,21.40
2022-07-31T23:03:09.825Z,21.41
2022-07-31T23:08:09.914Z,21.41
2022-07-31T23:13:09.871Z,21.38
2022-07-31T23:18:09.842Z,21.33
2022-07-31T23:23:09.770Z,21.28
2022-07-31T23:28:09.851Z,21.23
2022-07-31T23:33:11.720Z,21.19
2022-07-31T23:38:11.831Z,21.15
2022-07-31T23:43:11.862Z,21.12
2022-07-31T23:48:13.267Z,21.09
2022-07-31T23:53:13.953Z,21.06
2022-07-31T23:58:13.918Z,21.05
